createdAt,value
2023-05-01T00:02:01.921Z,35.38
2023-05-01T00:04:29.025Z,35.37
2023-05-01T00:06:55.627Z,35.23
2023-05-01T00:09:22.143Z,35.24
2023-05-01T00:11:48.945Z,35.38
2023-05-01T00:14:15.500Z,35.23
2023-05-01T00:16:42.600Z,35.46
2023-05-01T00:19:09.477Z,35.36
2023-05-01T00:21:36.033Z,35.50
2023-05-01T00:24:02.523Z,35.51
2023-05-01T00:26:31.334Z,35.18
2023-05-01T00:28:58.354Z,35.56
2023-05-01T00:31:25.944Z,35.43
2023-05-01T00:33:52.725Z,35.43
2023-05-01T00:36:19.842Z,35.39
2023-05-01T00:38:46.530Z,35.57
2023-05-01T00:41:13.332Z,35.47
2023-05-01T00:43:39.830Z,35.31
2023-05-01T00:46:07.983Z,35.35
2023-05-01T00:48:35.423Z,35.33
2023-05-01T00:51:07.883Z,35.60
2023-05-01T00:53:35.045Z,35.51
2023-05-01T00:56:02.302Z,35.45
2023-05-01T00:58:29.489Z,35.53
2023-05-01T01:00:56.804Z,35.51
2023-05-01T01:03:23.563Z,35.36
2023-05-01T01:06:00.048Z,35.70
2023-05-01T01:08:55.026Z,35.38
2023-05-01T01:11:38.042Z,35.56
2023-05-01T01:14:10.836Z,35.73
2023-05-01T01:17:06.967Z,35.57
2023-05-01T01:19:52.554Z,35.73
2023-05-01T01:22:23.861Z,35.76
2023-05-01T01:25:28.122Z,35.52
2023-05-01T01:28:38.951Z,35.72
2023-05-01T01:31:21.048Z,35.75
2023-05-01T01:33:57.125Z,35.78
2023-05-01T01:36:53.746Z,35.55
2023-05-01T01:39:54.753Z,35.61
2023-05-01T01:42:37.670Z,35.62
2023-05-01T01:45:10.745Z,35.66
2023-05-01T01:47:41.712Z,35.90
2023-05-01T01:50:11.275Z,35.85
2023-05-01T01:52:40.581Z,35.69
2023-05-01T01:55:11.099Z,35.67
2023-05-01T01:57:40.415Z,35.78
2023-05-01T02:00:11.145Z,35.68
2023-05-01T02:02:43.970Z,35.91
2023-05-01T02:05:15.368Z,35.64
2023-05-01T02:07:46.120Z,36.01
2023-05-01T02:10:14.948Z,35.62
2023-05-01T02:12:50.995Z,35.81
2023-05-01T02:15:21.788Z,35.84
2023-05-01T02:17:51.368Z,35.72
2023-05-01T02:20:19.967Z,35.88
2023-05-01T02:22:48.231Z,35.94
2023-05-01T02:25:16.695Z,35.77
2023-05-01T02:28:00.630Z,35.75
2023-05-01T02:30:27.550Z,35.63
2023-05-01T02:32:54.169Z,35.67
2023-05-01T02:35:21.300Z,35.68
2023-05-01T02:37:48.336Z,35.70
2023-05-01T02:40:15.539Z,35.91
2023-05-01T02:42:44.893Z,35.91
2023-05-01T02:45:20.490Z,35.73
2023-05-01T02:47:51.872Z,35.74
2023-05-01T02:50:20.114Z,35.86
2023-05-01T02:52:47.476Z,35.80
2023-05-01T02:55:27.142Z,35.81
2023-05-01T02:57:53.679Z,35.80
2023-05-01T03:00:20.776Z,35.82
2023-05-01T03:02:47.650Z,35.86
2023-05-01T03:05:14.362Z,35.67
2023-05-01T03:07:40.956Z,35.83
2023-05-01T03:10:08.148Z,35.75
2023-05-01T03:12:34.754Z,36.10
2023-05-01T03:15:01.258Z,35.65
2023-05-01T03:17:27.987Z,35.92
2023-05-01T03:19:54.867Z,36.08
2023-05-01T03:22:21.787Z,36.04
2023-05-01T03:24:48.461Z,35.97
2023-05-01T03:27:15.069Z,35.73
2023-05-01T03:29:41.614Z,35.82
2023-05-01T03:32:08.293Z,35.88
2023-05-01T03:34:35.383Z,35.85
2023-05-01T03:37:01.992Z,35.68
2023-05-01T03:39:28.745Z,35.81
2023-05-01T03:42:13.823Z,35.93
2023-05-01T03:44:42.576Z,35.75
2023-05-01T03:47:10.225Z,35.74
2023-05-01T03:49:43.640Z,35.84
2023-05-01T03:52:12.527Z,35.82
2023-05-01T03:54:39.436Z,35.86
2023-05-01T03:57:32.070Z,35.63
2023-05-01T03:59:59.440Z,35.88
2023-05-01T04:02:27.547Z,35.72
2023-05-01T04:04:54.721Z,35.64
2023-05-01T04:07:21.774Z,35.85
2023-05-01T04:09:50.883Z,35.76
2023-05-01T04:12:17.507Z,35.80
2023-05-01T04:14:44.668Z,35.74
2023-05-01T04:17:12.253Z,35.82
2023-05-01T04:19:39.166Z,35.62
2023-05-01T04:22:05.755Z,35.60
2023-05-01T04:24:34.542Z,35.44
2023-05-01T04:27:01.257Z,35.68
2023-05-01T04:29:27.912Z,35.74
2023-05-01T04:31:54.736Z,36.05
2023-05-01T04:34:21.412Z,35.52
2023-05-01T04:36:48.007Z,35.54
2023-05-01T04:39:15.718Z,35.59
2023-05-01T04:41:42.511Z,35.65
2023-05-01T04:44:09.160Z,35.44
2023-05-01T04:46:35.781Z,35.59
2023-05-01T04:49:05.863Z,35.72
2023-05-01T04:51:32.401Z,35.45
2023-05-01T04:53:59.099Z,35.52
2023-05-01T04:56:27.634Z,35.34
2023-05-01T04:58:59.688Z,35.45
2023-05-01T05:01:27.857Z,35.29
2023-05-01T05:03:54.643Z,35.54
2023-05-01T05:06:21.758Z,35.43
2023-05-01T05:08:51.863Z,35.47
2023-05-01T05:11:19.206Z,35.49
2023-05-01T05:13:48.752Z,35.44
2023-05-01T05:16:16.267Z,35.23
2023-05-01T05:18:43.087Z,35.41
2023-05-01T05:21:10.678Z,35.21
2023-05-01T05:23:41.748Z,35.42
2023-05-01T05:26:08.437Z,35.25
2023-05-01T05:28:35.307Z,35.31
2023-05-01T05:33:26.073Z,35.20
2023-05-01T05:35:52.955Z,35.09
2023-05-01T05:38:23.418Z,34.97
2023-05-01T05:40:54.467Z,35.12
2023-05-01T05:43:21.984Z,35.03
2023-05-01T05:45:49.524Z,34.85
2023-05-01T05:48:16.796Z,34.98
2023-05-01T05:50:43.478Z,35.00
2023-05-01T05:53:11.830Z,34.76
2023-05-01T05:55:38.675Z,34.93
2023-05-01T05:58:06.803Z,35.01
2023-05-01T06:00:33.839Z,34.80
2023-05-01T06:03:04.707Z,34.93
2023-05-01T06:05:32.738Z,34.67
2023-05-01T06:07:59.641Z,34.63
2023-05-01T06:10:26.446Z,34.71
2023-05-01T06:12:58.276Z,34.80
2023-05-01T06:15:33.708Z,34.58
2023-05-01T06:18:00.914Z,34.81
2023-05-01T06:20:27.819Z,34.63
2023-05-01T06:22:55.965Z,34.55
2023-05-01T06:25:30.023Z,34.54
2023-05-01T06:27:56.734Z,34.40
2023-05-01T06:30:24.060Z,34.60
2023-05-01T06:32:51.155Z,34.46
2023-05-01T06:35:18.012Z,34.37
2023-05-01T06:37:44.853Z,34.40
2023-05-01T06:40:12.575Z,34.37
2023-05-01T06:42:39.916Z,34.44
2023-05-01T06:45:07.707Z,34.33
2023-05-01T06:47:34.610Z,34.24
2023-05-01T06:50:03.626Z,34.45
2023-05-01T06:52:33.392Z,34.10
2023-05-01T06:54:59.952Z,34.26
2023-05-01T06:57:26.913Z,34.35
2023-05-01T06:59:54.164Z,34.35
2023-05-01T07:02:21.335Z,34.23
2023-05-01T07:04:47.937Z,34.02
2023-05-01T07:07:14.669Z,34.21
2023-05-01T07:09:41.509Z,34.02
2023-05-01T07:12:08.739Z,33.98
2023-05-01T07:14:36.005Z,34.29
2023-05-01T07:17:03.525Z,34.38
2023-05-01T07:19:30.387Z,34.30
2023-05-01T07:21:57.029Z,34.38
2023-05-01T07:24:23.789Z,34.03
2023-05-01T07:26:51.728Z,34.13
2023-05-01T07:29:18.633Z,33.99
2023-05-01T07:31:46.099Z,33.95
2023-05-01T07:34:12.895Z,34.06
2023-05-01T07:36:42.126Z,34.16
2023-05-01T07:39:08.655Z,33.94
2023-05-01T07:41:35.368Z,33.94
2023-05-01T07:44:02.236Z,34.03
2023-05-01T07:46:29.511Z,33.91
2023-05-01T07:48:56.331Z,33.96
2023-05-01T07:51:23.824Z,33.74
2023-05-01T07:53:50.721Z,33.92
2023-05-01T07:56:17.850Z,33.64
2023-05-01T07:58:44.482Z,33.66
2023-05-01T08:01:12.096Z,33.88
2023-05-01T08:03:38.960Z,33.86
2023-05-01T08:06:06.377Z,33.70
2023-05-01T08:08:33.003Z,33.48
2023-05-01T08:10:59.668Z,33.62
2023-05-01T08:13:26.292Z,33.84
2023-05-01T08:15:53.121Z,33.75
2023-05-01T08:18:23.550Z,33.66
2023-05-01T08:20:50.252Z,33.74
2023-05-01T08:23:17.439Z,33.69
2023-05-01T08:25:46.808Z,33.53
2023-05-01T08:28:14.947Z,33.77
2023-05-01T08:30:41.790Z,33.58
2023-05-01T08:33:08.485Z,33.98
2023-05-01T08:37:49.995Z,33.53
2023-05-01T08:40:16.705Z,33.72
2023-05-01T08:42:43.842Z,33.67
2023-05-01T08:45:12.060Z,33.57
2023-05-01T08:47:40.155Z,33.66
2023-05-01T08:50:11.810Z,33.43
2023-05-01T08:52:42.363Z,33.45
2023-05-01T08:55:14.502Z,33.45
2023-05-01T08:57:49.707Z,33.31
2023-05-01T09:00:21.520Z,33.69
2023-05-01T09:02:49.955Z,33.61
2023-05-01T09:05:18.591Z,33.26
2023-05-01T09:07:46.581Z,33.34
2023-05-01T09:10:15.447Z,33.18
2023-05-01T09:12:44.746Z,33.25
2023-05-01T09:15:12.229Z,33.51
2023-05-01T09:17:40.025Z,33.59
2023-05-01T09:20:07.796Z,33.62
2023-05-01T09:22:35.400Z,33.61
2023-05-01T09:25:03.187Z,33.38
2023-05-01T09:27:37.442Z,33.27
2023-05-01T09:30:06.726Z,33.36
2023-05-01T09:32:33.494Z,33.26
2023-05-01T09:35:14.474Z,33.32
2023-05-01T09:37:41.646Z,33.32
2023-05-01T09:40:13.235Z,33.46
2023-05-01T09:42:49.015Z,33.49
2023-05-01T09:45:16.382Z,33.20
2023-05-01T09:47:44.048Z,33.42
2023-05-01T09:50:29.265Z,33.41
2023-05-01T09:52:55.949Z,33.30
2023-05-01T09:55:25.442Z,33.48
2023-05-01T09:57:53.007Z,33.62
2023-05-01T10:00:21.990Z,33.70
2023-05-01T10:02:50.053Z,33.45
2023-05-01T10:05:17.753Z,33.76
2023-05-01T10:07:59.784Z,33.37
2023-05-01T10:10:26.843Z,33.64
2023-05-01T10:12:53.506Z,33.54
2023-05-01T10:15:26.288Z,33.41
2023-05-01T10:17:54.603Z,33.64
2023-05-01T10:20:21.741Z,33.67
2023-05-01T10:22:49.132Z,33.70
2023-05-01T10:25:18.069Z,33.67
2023-05-01T10:27:45.034Z,33.56
2023-05-01T10:30:12.723Z,33.75
2023-05-01T10:32:41.504Z,33.46
2023-05-01T10:35:19.753Z,33.39
2023-05-01T10:37:49.424Z,33.47
2023-05-01T10:40:43.643Z,33.61
2023-05-01T10:43:26.267Z,33.26
2023-05-01T10:45:54.588Z,33.35
2023-05-01T10:48:45.398Z,33.49
2023-05-01T10:51:17.180Z,33.59
2023-05-01T10:53:49.356Z,33.35
2023-05-01T10:56:24.024Z,33.39
2023-05-01T10:58:53.954Z,33.30
2023-05-01T11:01:37.864Z,33.38
2023-05-01T11:04:27.915Z,33.57
2023-05-01T11:06:57.617Z,33.37
2023-05-01T11:09:54.772Z,33.27
2023-05-01T11:12:46.362Z,33.23
2023-05-01T11:15:25.159Z,33.52
2023-05-01T11:17:52.391Z,33.41
2023-05-01T11:20:24.821Z,33.32
2023-05-01T11:22:56.383Z,33.31
2023-05-01T11:25:33.723Z,33.56
2023-05-01T11:28:02.166Z,33.54
2023-05-01T11:30:39.232Z,33.86
2023-05-01T11:33:09.173Z,33.68
2023-05-01T11:35:37.647Z,34.00
2023-05-01T11:38:06.520Z,34.04
2023-05-01T11:40:34.849Z,34.25
2023-05-01T11:43:03.672Z,33.84
2023-05-01T11:45:31.066Z,33.81
2023-05-01T11:47:59.461Z,33.75
2023-05-01T11:50:36.314Z,33.48
2023-05-01T11:53:11.684Z,33.41
2023-05-01T11:55:38.994Z,33.28
2023-05-01T11:58:06.178Z,32.85
2023-05-01T12:00:34.653Z,33.08
2023-05-01T12:03:23.373Z,32.61
2023-05-01T12:05:50.174Z,32.77
2023-05-01T12:08:18.924Z,32.40
2023-05-01T12:10:53.533Z,32.44
2023-05-01T12:13:20.609Z,32.57
2023-05-01T12:15:48.555Z,32.42
2023-05-01T12:18:17.064Z,32.48
2023-05-01T12:20:48.687Z,32.59
2023-05-01T12:23:16.377Z,32.93
2023-05-01T12:25:44.746Z,32.64
2023-05-01T12:28:14.595Z,32.88
2023-05-01T12:30:42.641Z,32.94
2023-05-01T12:33:11.574Z,32.87
2023-05-01T12:35:39.885Z,32.54
2023-05-01T12:38:13.839Z,32.69
2023-05-01T12:40:50.787Z,32.47
2023-05-01T12:43:19.007Z,32.54
2023-05-01T12:45:52.389Z,32.39
2023-05-01T12:48:19.947Z,32.51
2023-05-01T12:50:48.106Z,31.95
2023-05-01T12:53:15.517Z,31.64
2023-05-01T12:55:51.503Z,31.39
2023-05-01T12:58:18.822Z,31.25
2023-05-01T13:00:53.031Z,30.95
2023-05-01T13:03:28.449Z,30.80
2023-05-01T13:06:03.787Z,30.99
2023-05-01T13:08:32.836Z,31.46
2023-05-01T13:11:02.838Z,31.52
2023-05-01T13:13:34.845Z,31.23
2023-05-01T13:16:07.340Z,31.33
2023-05-01T13:18:34.703Z,31.28
2023-05-01T13:21:12.992Z,31.11
2023-05-01T13:23:40.222Z,31.43
2023-05-01T13:26:07.898Z,31.11
2023-05-01T13:28:36.201Z,31.14
2023-05-01T13:31:03.646Z,31.11
2023-05-01T13:33:32.524Z,31.42
2023-05-01T13:36:01.721Z,31.59
2023-05-01T13:38:40.927Z,31.48
2023-05-01T13:41:07.528Z,31.29
2023-05-01T13:43:34.273Z,31.39
2023-05-01T13:46:03.680Z,31.10
2023-05-01T13:48:30.890Z,31.51
2023-05-01T13:50:57.942Z,31.84
2023-05-01T13:53:24.543Z,31.66
2023-05-01T13:55:51.266Z,31.39
2023-05-01T13:58:17.938Z,31.19
2023-05-01T14:00:45.238Z,31.07
2023-05-01T14:03:12.784Z,30.69
2023-05-01T14:05:40.075Z,30.63
2023-05-01T14:08:08.778Z,30.21
2023-05-01T14:10:35.334Z,30.23
2023-05-01T14:13:04.999Z,30.26
2023-05-01T14:15:34.076Z,29.80
2023-05-01T14:18:07.117Z,29.79
2023-05-01T14:20:33.972Z,29.70
2023-05-01T14:23:03.318Z,29.46
2023-05-01T14:25:34.521Z,29.30
2023-05-01T14:28:05.121Z,29.21
2023-05-01T14:30:39.761Z,29.10
2023-05-01T14:33:09.525Z,29.30
2023-05-01T14:35:39.086Z,29.48
2023-05-01T14:38:11.677Z,29.16
2023-05-01T14:40:41.716Z,29.09
2023-05-01T14:43:10.505Z,29.13
2023-05-01T14:45:43.985Z,29.66
2023-05-01T14:48:11.550Z,29.81
2023-05-01T14:50:38.621Z,29.71
2023-05-01T14:53:05.678Z,29.99
2023-05-01T14:55:34.727Z,30.07
2023-05-01T14:58:01.943Z,29.90
2023-05-01T15:00:28.567Z,29.82
2023-05-01T15:02:58.340Z,30.21
2023-05-01T15:05:26.260Z,30.23
2023-05-01T15:07:56.694Z,30.16
2023-05-01T15:10:23.900Z,30.57
2023-05-01T15:12:51.299Z,30.60
2023-05-01T15:15:18.095Z,30.39
2023-05-01T15:17:45.452Z,30.58
2023-05-01T15:20:12.982Z,30.43
2023-05-01T15:22:41.067Z,30.57
2023-05-01T15:25:09.943Z,30.71
2023-05-01T15:27:36.476Z,31.01
2023-05-01T15:30:05.213Z,30.75
2023-05-01T15:32:32.030Z,31.02
2023-05-01T15:34:58.937Z,31.19
2023-05-01T15:37:26.601Z,31.26
2023-05-01T15:39:53.467Z,31.15
2023-05-01T15:42:20.683Z,31.40
2023-05-01T15:44:47.905Z,31.24
2023-05-01T15:47:15.107Z,31.41
2023-05-01T15:49:42.013Z,31.49
2023-05-01T15:52:08.800Z,31.31
2023-05-01T15:54:35.626Z,31.74
2023-05-01T15:57:03.166Z,31.77
2023-05-01T15:59:30.650Z,31.75
2023-05-01T16:01:57.391Z,31.69
2023-05-01T16:04:23.986Z,31.96
2023-05-01T16:06:51.441Z,31.75
2023-05-01T16:09:18.906Z,32.01
2023-05-01T16:11:45.671Z,31.82
2023-05-01T16:14:14.966Z,32.31
2023-05-01T16:16:42.805Z,32.36
2023-05-01T16:19:11.392Z,32.44
2023-05-01T16:21:38.456Z,32.38
2023-05-01T16:26:33.782Z,31.81
2023-05-01T16:29:04.314Z,31.50
2023-05-01T16:31:47.694Z,31.49
2023-05-01T16:34:15.699Z,31.50
2023-05-01T16:36:43.155Z,31.80
2023-05-01T16:39:13.908Z,32.78
2023-05-01T16:41:45.968Z,33.30
2023-05-01T16:44:16.572Z,33.55
2023-05-01T16:46:45.632Z,33.83
2023-05-01T16:49:13.653Z,34.03
2023-05-01T16:51:44.212Z,34.04
2023-05-01T16:54:11.380Z,33.98
2023-05-01T16:58:53.829Z,33.88
2023-05-01T17:01:20.622Z,33.65
2023-05-01T17:03:47.273Z,33.32
2023-05-01T17:06:13.987Z,33.14
2023-05-01T17:08:41.003Z,32.80
2023-05-01T17:11:08.405Z,32.56
2023-05-01T17:13:35.389Z,31.92
2023-05-01T17:16:02.172Z,31.87
2023-05-01T17:18:28.994Z,31.99
2023-05-01T17:20:55.619Z,31.88
2023-05-01T17:23:22.339Z,31.71
2023-05-01T17:25:48.955Z,31.45
2023-05-01T17:28:16.438Z,31.55
2023-05-01T17:30:43.053Z,31.62
2023-05-01T17:33:09.576Z,31.81
2023-05-01T17:35:36.369Z,31.96
2023-05-01T17:38:02.908Z,31.98
2023-05-01T17:40:29.574Z,32.37
2023-05-01T17:42:56.196Z,32.84
2023-05-01T17:45:23.100Z,32.91
2023-05-01T17:47:50.667Z,33.24
2023-05-01T17:50:18.543Z,33.63
2023-05-01T17:52:45.172Z,34.13
2023-05-01T17:55:14.978Z,34.60
2023-05-01T17:57:44.185Z,34.75
2023-05-01T18:00:11.508Z,34.89
2023-05-01T18:02:44.656Z,34.87
2023-05-01T18:05:12.113Z,35.07
2023-05-01T18:07:38.706Z,35.09
2023-05-01T18:10:05.898Z,35.25
2023-05-01T18:12:32.474Z,35.14
2023-05-01T18:14:59.422Z,35.58
2023-05-01T18:17:26.130Z,35.24
2023-05-01T18:19:53.113Z,35.69
2023-05-01T18:22:19.900Z,35.80
2023-05-01T18:24:49.384Z,35.84
2023-05-01T18:27:16.642Z,36.45
2023-05-01T18:29:44.250Z,36.58
2023-05-01T18:32:13.515Z,36.92
2023-05-01T18:34:43.710Z,36.89
2023-05-01T18:37:10.459Z,37.07
2023-05-01T18:39:37.079Z,37.40
2023-05-01T18:42:03.789Z,37.50
2023-05-01T18:44:31.360Z,37.65
2023-05-01T18:46:58.076Z,38.09
2023-05-01T18:49:25.029Z,38.39
2023-05-01T18:51:52.460Z,38.34
2023-05-01T18:54:19.306Z,38.44
2023-05-01T18:56:46.535Z,38.48
2023-05-01T18:59:13.198Z,38.54
2023-05-01T19:01:39.871Z,38.75
2023-05-01T19:04:10.288Z,38.91
2023-05-01T19:06:37.070Z,38.78
2023-05-01T19:09:03.687Z,38.85
2023-05-01T19:11:31.926Z,39.27
2023-05-01T19:13:58.727Z,39.27
2023-05-01T19:16:28.695Z,39.60
2023-05-01T19:18:55.574Z,39.47
2023-05-01T19:21:22.343Z,39.67
2023-05-01T19:23:49.652Z,39.63
2023-05-01T19:26:16.624Z,39.89
2023-05-01T19:28:43.274Z,39.79
2023-05-01T19:31:12.332Z,39.96
2023-05-01T19:33:40.188Z,40.07
2023-05-01T19:36:06.711Z,40.10
2023-05-01T19:38:33.913Z,40.53
2023-05-01T19:41:00.538Z,41.09
2023-05-01T19:43:27.244Z,41.24
2023-05-01T19:45:53.851Z,40.97
2023-05-01T19:48:20.547Z,40.85
2023-05-01T19:50:51.165Z,40.84
2023-05-01T19:53:18.394Z,40.72
2023-05-01T19:55:47.760Z,40.55
2023-05-01T19:58:15.043Z,40.33
2023-05-01T20:00:41.841Z,40.27
2023-05-01T20:03:09.608Z,40.16
2023-05-01T20:05:37.249Z,39.79
2023-05-01T20:08:04.718Z,39.96
2023-05-01T20:10:31.364Z,39.44
2023-05-01T20:12:58.235Z,39.31
2023-05-01T20:15:24.855Z,38.97
2023-05-01T20:17:51.515Z,38.79
2023-05-01T20:20:19.175Z,38.99
2023-05-01T20:22:46.676Z,38.88
2023-05-01T20:25:13.693Z,38.94
2023-05-01T20:27:41.391Z,38.98
2023-05-01T20:30:11.102Z,39.21
2023-05-01T20:32:43.885Z,39.15
2023-05-01T20:35:11.582Z,39.22
2023-05-01T20:37:38.350Z,39.60
2023-05-01T20:40:07.370Z,39.32
2023-05-01T20:42:34.046Z,39.50
2023-05-01T20:45:03.657Z,39.63
2023-05-01T20:47:31.744Z,39.58
2023-05-01T20:49:58.771Z,39.46
2023-05-01T20:52:25.827Z,39.45
2023-05-01T20:54:52.393Z,39.56
2023-05-01T20:57:18.950Z,39.82
2023-05-01T20:59:50.154Z,39.87
2023-05-01T21:02:17.107Z,39.55
2023-05-01T21:04:44.259Z,39.94
2023-05-01T21:07:10.942Z,39.81
2023-05-01T21:09:37.514Z,39.93
2023-05-01T21:12:06.193Z,39.78
2023-05-01T21:14:32.858Z,39.83
2023-05-01T21:16:59.621Z,39.86
2023-05-01T21:19:26.221Z,39.82
2023-05-01T21:21:55.185Z,39.83
2023-05-01T21:24:25.773Z,39.94
2023-05-01T21:26:55.413Z,39.69
2023-05-01T21:29:21.945Z,39.59
2023-05-01T21:31:49.112Z,39.46
2023-05-01T21:34:17.816Z,39.76
2023-05-01T21:36:49.149Z,39.63
2023-05-01T21:39:16.238Z,39.55
2023-05-01T21:41:42.898Z,39.88
2023-05-01T21:44:09.683Z,40.05
2023-05-01T21:46:37.195Z,40.30
2023-05-01T21:49:04.476Z,39.97
2023-05-01T21:51:33.423Z,40.34
2023-05-01T21:54:01.629Z,40.51
2023-05-01T21:56:28.570Z,40.33
2023-05-01T21:59:01.828Z,40.47
2023-05-01T22:01:28.880Z,40.92
2023-05-01T22:03:55.894Z,40.93
2023-05-01T22:06:24.315Z,40.81
2023-05-01T22:08:51.981Z,41.03
2023-05-01T22:11:19.955Z,40.98
2023-05-01T22:13:46.509Z,41.04
2023-05-01T22:16:14.049Z,41.02
2023-05-01T22:18:40.896Z,41.14
2023-05-01T22:21:07.576Z,41.20
2023-05-01T22:23:34.115Z,41.68
2023-05-01T22:26:00.751Z,41.46
2023-05-01T22:28:27.650Z,41.40
2023-05-01T22:30:54.741Z,41.78
2023-05-01T22:33:21.591Z,41.73
2023-05-01T22:35:48.655Z,41.75
2023-05-01T22:38:15.209Z,41.70
2023-05-01T22:40:41.837Z,41.97
2023-05-01T22:43:08.738Z,41.94
2023-05-01T22:45:36.402Z,41.47
2023-05-01T22:48:03.079Z,41.84
2023-05-01T22:50:29.747Z,41.61
2023-05-01T22:52:56.362Z,41.48
2023-05-01T22:55:23.174Z,41.57
2023-05-01T22:57:49.726Z,41.93
2023-05-01T23:00:16.843Z,41.63
2023-05-01T23:02:43.426Z,41.94
2023-05-01T23:05:11.081Z,42.23
2023-05-01T23:07:38.677Z,42.30
2023-05-01T23:10:05.900Z,42.26
2023-05-01T23:12:33.058Z,42.50
2023-05-01T23:14:59.842Z,42.39
2023-05-01T23:17:33.721Z,42.07
2023-05-01T23:20:00.665Z,42.19
2023-05-01T23:22:29.789Z,41.65
2023-05-01T23:24:56.654Z,41.87
2023-05-01T23:27:23.208Z,41.96
2023-05-01T23:29:59.319Z,41.92
2023-05-01T23:32:30.703Z,41.55
2023-05-01T23:35:04.925Z,41.58
2023-05-01T23:37:31.514Z,41.72
2023-05-01T23:40:02.285Z,41.60
2023-05-01T23:42:29.213Z,41.48
2023-05-01T23:44:56.456Z,41.40
2023-05-01T23:47:23.277Z,41.60
2023-05-01T23:49:50.073Z,41.34
2023-05-01T23:52:17.071Z,41.60
2023-05-01T23:54:43.587Z,41.46
2023-05-01T23:57:10.569Z,41.29
2023-05-01T23:59:37.435Z,41.22
